Time;durP1;ratioP1;P1;durP2;ratioP2;P2;SDS_P1;SDS_P2;PMS_P1;PMS_P2;Temp;Humidity;BMP_temperature;BMP_pressure;BME280_temperature;BME280_humidity;BME280_pressure;Samples;Min_cycle;Max_cycle;Signal;HPM_P1;HPM_P2
2022/06/07 00:00:46;;;;;;;;;7.00;7.00;;;;;20.45;63.62;99315.78;5072354;28;45577;-58
2022/06/07 00:03:12;;;;;;;;;7.20;6.60;;;;;20.41;65.99;99325.03;5073003;28;47921;-58
2022/06/07 00:05:40;;;;;;;;;5.00;4.75;;;;;20.35;64.78;99321.94;5071972;28;45539;-58
2022/06/07 00:08:06;;;;;;;;;6.80;6.80;;;;;20.31;66.08;99320.47;5075514;28;45499;-57
2022/06/07 00:10:32;;;;;;;;;8.50;7.25;;;;;20.24;66.74;99325.47;5077629;28;45842;-58
2022/06/07 00:12:57;;;;;;;;;7.50;7.50;;;;;20.17;67.65;99310.81;5073842;28;45726;-60
2022/06/07 00:15:23;;;;;;;;;8.00;8.00;;;;;20.08;66.56;99311.53;5077408;28;45456;-60
2022/06/07 00:17:48;;;;;;;;;7.25;7.25;;;;;20.02;68.12;99317.34;5076739;28;45524;-57
2022/06/07 00:20:14;;;;;;;;;4.75;4.75;;;;;19.99;68.75;99320.25;5072255;28;45378;-57
2022/06/07 00:22:41;;;;;;;;;5.75;5.75;;;;;19.95;68.78;99310.72;5074762;28;47118;-59
2022/06/07 00:25:09;;;;;;;;;7.80;7.80;;;;;19.97;68.63;99306.13;5077134;28;45396;-57
2022/06/07 00:27:35;;;;;;;;;6.80;6.00;;;;;19.96;69.88;99310.63;5058973;28;45452;-57
2022/06/07 00:30:01;;;;;;;;;7.50;6.50;;;;;19.95;68.95;99313.41;5071486;28;45595;-59
2022/06/07 00:32:27;;;;;;;;;6.00;6.00;;;;;19.93;69.77;99313.56;5076810;28;46669;-59
2022/06/07 00:34:53;;;;;;;;;6.75;6.75;;;;;19.92;69.03;99316.34;5069310;28;45515;-59
2022/06/07 00:37:18;;;;;;;;;6.00;5.00;;;;;19.91;68.82;99317.31;5077334;28;45497;-57
2022/06/07 00:39:43;;;;;;;;;7.50;7.00;;;;;19.92;67.13;99305.63;5065613;28;45406;-57
2022/06/07 00:42:10;;;;;;;;;5.00;4.50;;;;;19.95;67.96;99308.06;5076788;28;45448;-58
2022/06/07 00:44:44;;;;;;;;;8.80;8.20;;;;;19.97;69.03;99315.00;5062294;28;45399;-57
2022/06/07 00:47:18;;;;;;;;;5.80;5.80;;;;;19.98;67.36;99299.81;5075102;28;45388;-58
2022/06/07 00:49:53;;;;;;;;;7.00;7.00;;;;;19.98;68.26;99297.97;5051949;28;45609;-57
2022/06/07 00:52:21;;;;;;;;;7.00;7.00;;;;;20.01;67.63;99294.22;5076115;28;46230;-59
2022/06/07 00:54:47;;;;;;;;;7.80;7.60;;;;;20.05;68.17;99290.34;5077431;28;45397;-59
2022/06/07 00:57:13;;;;;;;;;6.00;6.00;;;;;20.09;68.17;99286.47;5073348;28;45451;-59
2022/06/07 00:59:38;;;;;;;;;8.25;8.25;;;;;20.13;68.05;99279.91;5074063;28;45404;-59
2022/06/07 01:02:05;;;;;;;;;8.00;8.00;;;;;20.20;67.63;99275.78;5065125;28;45463;-59
2022/06/07 01:04:30;;;;;;;;;7.60;7.60;;;;;20.25;68.45;99276.28;5070714;28;45467;-59
2022/06/07 01:12:26;;;;;;;;;9.20;8.00;;;;;20.30;68.56;99279.44;5071994;28;45681;-59
2022/06/07 01:14:51;;;;;;;;;10.00;9.00;;;;;20.31;68.74;99288.34;5073231;28;45518;-59
2022/06/07 01:17:19;;;;;;;;;7.75;7.75;;;;;20.28;68.27;99277.84;5075312;28;45443;-59
2022/06/07 01:19:45;;;;;;;;;7.00;6.25;;;;;20.20;68.00;99282.00;5056476;28;45466;-59
2022/06/07 01:22:11;;;;;;;;;8.20;7.60;;;;;20.17;68.23;99284.06;5076239;28;45561;-59
2022/06/07 01:24:36;;;;;;;;;6.00;6.00;;;;;20.15;68.84;99280.63;5076423;28;45295;-59
2022/06/07 01:27:03;;;;;;;;;9.25;9.25;;;;;20.15;68.87;99277.94;5076626;28;45384;-59
2022/06/07 01:29:28;;;;;;;;;7.00;7.00;;;;;20.17;68.55;99279.53;5074125;28;45493;-58
2022/06/07 01:31:54;;;;;;;;;6.25;6.00;;;;;20.21;68.65;99274.81;5045581;28;46161;-59
2022/06/07 01:34:19;;;;;;;;;8.00;8.00;;;;;20.24;68.35;99274.59;5075577;28;45504;-59
2022/06/07 01:36:45;;;;;;;;;7.00;7.00;;;;;20.30;68.35;99278.59;5076352;27;45491;-59
2022/06/07 01:41:54;;;;;;;;;5.00;5.00;;;;;20.39;67.71;99278.78;5066158;28;45778;-59
2022/06/07 01:44:25;;;;;;;;;7.00;7.00;;;;;20.37;67.35;99269.16;5058065;28;45412;-59
2022/06/07 01:46:52;;;;;;;;;7.00;6.00;;;;;20.36;67.84;99275.44;5070481;28;45229;-59
2022/06/07 01:49:18;;;;;;;;;7.00;6.25;;;;;20.36;67.51;99267.41;5076352;28;45448;-59
2022/06/07 01:51:43;;;;;;;;;7.50;7.50;;;;;20.35;67.26;99268.38;5075999;28;45473;-59
2022/06/07 01:54:10;;;;;;;;;5.75;5.00;;;;;20.34;67.26;99277.38;5069826;28;45484;-59
2022/06/07 01:56:35;;;;;;;;;6.40;6.00;;;;;20.35;67.58;99276.41;5073325;28;45393;-59
2022/06/07 01:59:01;;;;;;;;;6.75;6.50;;;;;20.30;66.94;99281.28;5071174;28;45652;-59
2022/06/07 02:01:26;;;;;;;;;8.00;7.00;;;;;20.20;67.53;99276.63;5042617;28;46552;-59
2022/06/07 02:03:52;;;;;;;;;8.00;7.00;;;;;20.12;68.21;99267.47;5066930;28;45448;-59
2022/06/07 02:06:19;;;;;;;;;8.00;7.25;;;;;20.06;67.19;99267.97;5069104;28;45786;-59
2022/06/07 02:08:44;;;;;;;;;5.00;5.00;;;;;20.00;69.77;99263.94;5074373;28;45485;-59
2022/06/07 02:11:13;;;;;;;;;8.00;7.00;;;;;19.97;69.15;99260.63;5067495;28;45430;-59
2022/06/07 02:13:39;;;;;;;;;9.00;8.40;;;;;19.90;68.66;99259.41;5069665;28;45510;-59
2022/06/07 02:16:05;;;;;;;;;4.75;4.75;;;;;19.88;69.22;99258.66;5074184;28;45396;-59
2022/06/07 02:18:31;;;;;;;;;7.00;7.00;;;;;19.80;70.01;99257.41;5071791;28;45641;-59
2022/06/07 02:20:59;;;;;;;;;7.00;6.00;;;;;19.72;71.26;99264.31;5054019;28;46368;-58
2022/06/07 02:23:25;;;;;;;;;7.20;7.20;;;;;19.64;70.85;99264.03;5071548;28;45424;-59
2022/06/07 02:25:54;;;;;;;;;8.50;8.50;;;;;19.56;71.82;99269.13;5075360;28;45327;-59
2022/06/07 02:28:24;;;;;;;;;7.00;6.75;;;;;19.48;71.64;99261.63;5070251;28;45416;-59
2022/06/07 02:30:52;;;;;;;;;8.00;7.00;;;;;19.43;71.12;99253.97;5069745;28;46466;-59
2022/06/07 02:33:17;;;;;;;;;8.20;8.20;;;;;19.44;71.20;99262.81;5065549;28;45522;-58
2022/06/07 02:35:44;;;;;;;;;5.00;5.00;;;;;19.43;71.56;99251.28;5068333;28;45395;-59
2022/06/07 02:38:10;;;;;;;;;7.25;7.00;;;;;19.42;70.97;99254.06;5067889;28;45436;-59
2022/06/07 02:40:36;;;;;;;;;6.75;6.00;;;;;19.43;70.95;99256.63;5074348;28;45457;-59
2022/06/07 02:43:03;;;;;;;;;5.25;5.25;;;;;19.46;71.10;99252.84;5074589;28;45489;-59
2022/06/07 02:45:29;;;;;;;;;6.25;5.25;;;;;19.49;71.07;99264.22;5075194;28;45381;-59
2022/06/07 02:47:54;;;;;;;;;6.50;6.25;;;;;19.52;70.77;99264.00;5054132;28;45475;-59
2022/06/07 02:50:20;;;;;;;;;5.25;5.00;;;;;19.52;71.36;99263.13;5074889;28;45667;-59
2022/06/07 02:52:46;;;;;;;;;8.00;5.50;;;;;19.51;71.19;99272.13;5074399;28;45356;-59
2022/06/07 02:55:12;;;;;;;;;6.50;5.00;;;;;19.52;71.24;99271.16;5073833;28;45368;-59
2022/06/07 02:57:38;;;;;;;;;5.00;4.00;;;;;19.52;71.08;99255.97;5071335;28;45392;-59
2022/06/07 03:00:05;;;;;;;;;4.25;4.25;;;;;19.54;71.15;99269.22;5071400;28;46723;-59
2022/06/07 03:02:32;;;;;;;;;6.80;6.80;;;;;19.52;71.07;99261.31;5074189;28;45431;-59
2022/06/07 03:04:58;;;;;;;;;6.75;6.75;;;;;19.55;71.15;99265.59;5071066;28;45482;-59
2022/06/07 03:07:23;;;;;;;;;5.00;5.00;;;;;19.60;71.15;99270.59;5073948;28;45430;-59
2022/06/07 03:09:48;;;;;;;;;7.50;6.25;;;;;19.64;70.83;99269.38;5051557;28;46403;-59
2022/06/07 03:12:14;;;;;;;;;5.50;5.50;;;;;19.66;70.68;99273.66;5045365;28;45368;-59
2022/06/07 03:14:39;;;;;;;;;7.00;5.00;;;;;19.71;70.60;99278.66;5053059;28;45511;-59
2022/06/07 03:17:06;;;;;;;;;6.75;6.75;;;;;19.76;70.80;99285.38;5072701;28;45353;-59
2022/06/07 03:19:32;;;;;;;;;5.20;4.60;;;;;19.79;70.43;99278.94;5054030;28;46452;-59
2022/06/07 03:21:58;;;;;;;;;6.60;6.00;;;;;19.83;69.94;99281.25;5074180;28;45427;-59
2022/06/07 03:24:25;;;;;;;;;5.25;5.25;;;;;19.88;70.11;99285.44;5075069;28;45547;-59
2022/06/07 03:26:52;;;;;;;;;6.25;6.00;;;;;19.91;70.09;99285.19;5054653;28;45491;-59
2022/06/07 03:29:18;;;;;;;;;6.00;6.00;;;;;19.96;69.99;99286.53;5074165;28;45458;-59
2022/06/07 03:31:43;;;;;;;;;7.25;7.00;;;;;20.00;70.14;99290.69;5074422;28;45441;-59
2022/06/07 03:34:08;;;;;;;;;6.00;6.00;;;;;20.03;69.71;99290.47;5056159;28;45414;-60
2022/06/07 03:36:34;;;;;;;;;8.75;6.50;;;;;20.04;69.83;99284.16;5072664;28;45575;-60
2022/06/07 03:39:03;;;;;;;;;8.00;7.25;;;;;20.09;69.63;99287.34;5067360;28;48059;-60
2022/06/07 03:41:31;;;;;;;;;4.20;4.00;;;;;20.11;69.45;99296.06;5078000;28;45463;-59
2022/06/07 03:43:58;;;;;;;;;9.75;7.00;;;;;20.10;70.02;99299.75;5072653;28;45496;-59
2022/06/07 03:46:27;;;;;;;;;6.75;6.50;;;;;20.06;69.64;99310.78;5072558;28;45281;-59
2022/06/07 03:48:53;;;;;;;;;4.80;4.80;;;;;20.05;70.33;99306.41;5057329;28;46637;-59
2022/06/07 03:51:20;;;;;;;;;8.80;7.60;;;;;20.10;69.93;99313.13;5053036;28;45425;-59
2022/06/07 03:53:46;;;;;;;;;6.50;6.50;;;;;20.13;70.13;99315.53;5074001;28;45484;-59
2022/06/07 03:56:14;;;;;;;;;7.00;7.00;;;;;20.14;69.57;99314.56;5069025;28;45356;-59
2022/06/07 03:58:41;;;;;;;;;6.00;6.00;;;;;20.16;69.76;99311.78;5073128;28;45662;-59
2022/06/07 04:01:09;;;;;;;;;7.00;6.20;;;;;20.16;69.96;99303.75;5067958;28;45399;-59
2022/06/07 04:03:35;;;;;;;;;8.00;7.25;;;;;20.16;70.15;99304.59;5076899;28;45352;-59
2022/06/07 04:06:02;;;;;;;;;5.00;5.00;;;;;20.18;69.82;99297.31;5059955;28;45578;-59
2022/06/07 04:08:28;;;;;;;;;6.40;6.40;;;;;20.19;69.65;99303.53;5075373;28;45653;-59
2022/06/07 04:11:02;;;;;;;;;8.00;8.00;;;;;20.19;69.88;99309.72;5078093;28;45262;-59
2022/06/07 04:13:30;;;;;;;;;6.20;6.20;;;;;20.20;70.06;99307.91;5056545;28;45598;-59
2022/06/07 04:15:55;;;;;;;;;7.00;6.00;;;;;20.18;70.08;99313.38;5077759;28;45406;-59
2022/06/07 04:18:21;;;;;;;;;7.75;7.75;;;;;20.17;70.03;99313.50;5074744;28;45439;-59
2022/06/07 04:20:48;;;;;;;;;7.00;6.40;;;;;20.12;68.99;99323.69;5075254;28;45440;-59
2022/06/07 04:23:16;;;;;;;;;7.40;5.40;;;;;20.00;68.30;99320.13;5072907;28;45439;-59
2022/06/07 04:25:42;;;;;;;;;6.00;6.00;;;;;19.88;68.03;99318.38;5077069;28;45354;-59
2022/06/07 04:28:09;;;;;;;;;8.75;7.50;;;;;19.76;68.58;99322.84;5056112;28;46370;-59
2022/06/07 04:30:35;;;;;;;;;8.40;6.80;;;;;19.66;69.04;99324.47;5074390;28;45371;-59
2022/06/07 04:33:00;;;;;;;;;10.00;7.75;;;;;19.52;68.52;99322.81;5076917;28;45569;-57
2022/06/07 04:35:27;;;;;;;;;6.00;6.00;;;;;19.50;68.84;99314.06;5055140;28;45445;-56
2022/06/07 04:37:53;;;;;;;;;8.25;6.50;;;;;19.57;69.20;99319.81;5068998;28;46560;-56
2022/06/07 04:40:18;;;;;;;;;8.20;8.20;;;;;19.61;68.63;99326.63;5069364;28;45303;-57
2022/06/07 04:42:44;;;;;;;;;6.50;6.50;;;;;19.66;68.99;99328.97;5074707;28;45531;-56
2022/06/07 04:45:14;;;;;;;;;8.25;8.00;;;;;19.66;68.40;99334.31;5065040;28;45527;-57
2022/06/07 04:47:40;;;;;;;;;6.60;6.00;;;;;19.65;68.41;99335.28;5073132;28;46930;-57
2022/06/07 04:50:08;;;;;;;;;8.00;8.00;;;;;19.67;68.30;99328.84;5074825;28;45290;-57
2022/06/07 04:52:34;;;;;;;;;10.25;8.00;;;;;19.68;68.13;99325.22;5073479;28;45591;-56
2022/06/07 04:54:59;;;;;;;;;5.25;5.25;;;;;19.72;67.98;99331.19;5076156;28;45424;-56
2022/06/07 04:57:24;;;;;;;;;5.00;5.00;;;;;19.74;68.24;99331.94;5062723;28;46553;-57
2022/06/07 04:59:50;;;;;;;;;6.50;6.50;;;;;19.75;68.28;99323.81;5055765;28;45508;-57
2022/06/07 05:02:15;;;;;;;;;8.50;7.00;;;;;19.75;68.02;99321.13;5069097;28;45589;-57
2022/06/07 05:04:41;;;;;;;;;7.75;6.75;;;;;19.79;67.99;99327.09;5073065;28;45415;-56
2022/06/07 05:07:06;;;;;;;;;7.75;5.50;;;;;19.80;67.67;99323.44;5049433;28;45595;-56
2022/06/07 05:09:32;;;;;;;;;6.00;6.00;;;;;19.78;68.62;99320.03;5076571;28;45516;-57
2022/06/07 05:11:58;;;;;;;;;7.50;7.50;;;;;19.76;68.10;99328.19;5075665;28;45626;-56
2022/06/07 05:14:23;;;;;;;;;6.50;5.00;;;;;19.74;68.62;99330.13;5073458;28;45376;-57
2022/06/07 05:16:50;;;;;;;;;8.25;8.25;;;;;19.75;67.83;99326.50;5062875;28;45425;-56
2022/06/07 05:19:17;;;;;;;;;7.40;7.40;;;;;19.75;68.50;99329.16;5072641;28;45352;-57
2022/06/07 05:21:43;;;;;;;;;7.20;7.20;;;;;19.77;68.08;99329.88;5057127;28;45410;-56
2022/06/07 05:24:10;;;;;;;;;5.50;5.25;;;;;19.79;68.38;99335.13;5076374;28;45525;-56
2022/06/07 05:26:49;;;;;;;;;8.00;8.00;;;;;19.77;68.44;99335.22;5073857;28;45475;-57
2022/06/07 05:29:44;;;;;;;;;10.40;7.80;;;;;19.80;68.07;99342.16;5072221;28;45396;-57
2022/06/07 05:32:10;;;;;;;;;2.40;2.40;;;;;19.80;68.40;99344.84;5064140;28;45539;-57
2022/06/07 05:34:35;;;;;;;;;8.00;8.00;;;;;19.73;68.74;99338.25;5066266;28;45559;-58
2022/06/07 05:37:01;;;;;;;;;6.50;5.75;;;;;19.70;68.37;99342.00;5056442;28;46601;-57
2022/06/07 05:39:29;;;;;;;;;9.50;7.50;;;;;19.66;68.71;99337.00;5063826;28;45381;-57
2022/06/07 05:41:54;;;;;;;;;10.25;8.50;;;;;19.65;69.02;99344.16;5054110;28;45432;-56
2022/06/07 05:44:22;;;;;;;;;7.75;6.75;;;;;19.66;69.19;99348.56;5067338;28;45472;-57
2022/06/07 05:46:48;;;;;;;;;5.00;5.00;;;;;19.64;69.02;99344.28;5073388;28;45621;-56
2022/06/07 05:49:15;;;;;;;;;8.00;8.00;;;;;19.64;69.82;99338.94;5071395;28;45520;-57
2022/06/07 05:51:42;;;;;;;;;8.50;7.50;;;;;19.67;69.32;99336.03;5056445;28;45327;-57
2022/06/07 05:54:07;;;;;;;;;7.00;7.00;;;;;19.70;69.54;99335.81;5070095;28;45455;-56
2022/06/07 05:56:33;;;;;;;;;7.00;7.00;;;;;19.74;69.68;99339.97;5062108;28;45395;-57
2022/06/07 05:59:00;;;;;;;;;7.25;7.25;;;;;19.76;69.44;99332.69;5072045;28;45597;-60
2022/06/07 06:01:26;;;;;;;;;9.40;8.60;;;;;19.74;69.06;99337.31;5069555;28;45415;-60
2022/06/07 06:03:54;;;;;;;;;9.75;7.25;;;;;19.75;69.78;99337.19;5069948;28;45380;-58
2022/06/07 06:06:20;;;;;;;;;8.50;8.50;;;;;19.83;69.26;99337.44;5068124;28;45469;-58
2022/06/07 06:11:31;;;;;;;;;11.00;11.00;;;;;20.05;68.71;99341.22;5064337;28;45464;-59
2022/06/07 06:13:57;;;;;;;;;8.00;8.00;;;;;20.13;68.76;99336.97;5072265;28;45366;-59
2022/06/07 06:16:23;;;;;;;;;9.25;8.50;;;;;20.22;68.30;99343.47;5073315;28;45484;-59
2022/06/07 06:18:51;;;;;;;;;8.60;8.60;;;;;20.30;68.15;99342.84;5071989;28;45427;-60
2022/06/07 06:21:19;;;;;;;;;11.50;10.50;;;;;20.35;67.93;99340.69;5066895;28;45428;-60
2022/06/07 06:23:45;;;;;;;;;8.50;8.50;;;;;20.37;68.22;99342.31;5050794;28;46302;-60
2022/06/07 06:26:13;;;;;;;;;7.00;7.00;;;;;20.32;67.96;99336.41;5064234;28;46166;-59
2022/06/07 06:28:39;;;;;;;;;8.00;7.00;;;;;20.21;68.39;99337.25;5068714;28;45606;-60
2022/06/07 06:31:06;;;;;;;;;8.50;8.50;;;;;20.13;68.40;99336.09;5072320;28;45532;-60
2022/06/07 06:33:45;;;;;;;;;13.00;11.75;;;;;20.09;68.25;99342.69;5051118;28;45470;-60
2022/06/07 06:36:14;;;;;;;;;10.60;10.60;;;;;20.13;68.43;99344.13;5057333;28;45437;-59
2022/06/07 06:38:40;;;;;;;;;9.00;7.00;;;;;20.17;68.71;99341.13;5061947;28;45457;-59
2022/06/07 06:41:16;;;;;;;;;9.00;8.75;;;;;20.23;68.22;99331.78;5072164;28;45463;-59
2022/06/07 06:43:42;;;;;;;;;10.50;10.50;;;;;20.27;68.66;99332.41;5060846;28;45542;-59
2022/06/07 06:46:11;;;;;;;;;10.75;10.00;;;;;20.32;68.55;99323.03;5067219;28;45400;-60
2022/06/07 06:48:37;;;;;;;;;13.00;11.00;;;;;20.38;68.17;99324.44;5071727;28;45353;-59
2022/06/07 06:51:06;;;;;;;;;10.00;8.25;;;;;20.43;67.63;99333.81;5067896;28;45420;-60
2022/06/07 06:53:33;;;;;;;;;12.50;11.50;;;;;20.51;67.93;99331.38;5071585;28;45495;-60
2022/06/07 06:55:59;;;;;;;;;12.25;9.50;;;;;20.59;67.47;99327.28;5065755;28;45489;-59
2022/06/07 06:58:25;;;;;;;;;9.40;8.40;;;;;20.67;67.53;99335.56;5069609;28;45375;-60
2022/06/07 07:01:01;;;;;;;;;9.75;9.75;;;;;20.72;66.61;99328.88;5049638;28;45388;-60
2022/06/07 07:03:27;;;;;;;;;10.75;10.00;;;;;20.74;66.36;99324.25;5066400;28;45769;-60
2022/06/07 07:05:53;;;;;;;;;11.25;11.25;;;;;20.78;66.76;99324.88;5073414;28;45372;-60
2022/06/07 07:08:18;;;;;;;;;11.00;9.50;;;;;20.79;66.39;99327.41;5072741;28;45502;-60
2022/06/07 07:10:44;;;;;;;;;12.25;10.50;;;;;20.80;66.58;99322.88;5066283;28;45346;-59
2022/06/07 07:13:09;;;;;;;;;12.00;10.75;;;;;20.83;66.42;99317.28;5064484;28;45456;-60
2022/06/07 07:15:35;;;;;;;;;10.25;9.75;;;;;20.90;66.51;99323.88;5046660;28;45498;-59
2022/06/07 07:18:01;;;;;;;;;8.00;7.00;;;;;20.98;66.16;99323.25;5066370;28;45614;-59
2022/06/07 07:20:26;;;;;;;;;11.25;10.75;;;;;21.05;65.97;99327.16;5071274;28;45432;-59
2022/06/07 07:22:52;;;;;;;;;11.00;9.50;;;;;21.11;66.55;99330.22;5073071;28;45487;-60
2022/06/07 07:25:17;;;;;;;;;11.75;9.50;;;;;21.10;66.15;99325.84;5069703;28;46116;-60
2022/06/07 07:27:44;;;;;;;;;11.75;10.25;;;;;21.10;65.89;99327.66;5072085;28;45530;-60
2022/06/07 07:30:10;;;;;;;;;9.00;9.00;;;;;21.12;65.95;99314.97;5068907;28;45339;-60
2022/06/07 07:32:35;;;;;;;;;10.25;10.25;;;;;21.13;66.04;99316.66;5071667;28;45319;-60
2022/06/07 07:35:01;;;;;;;;;10.25;10.25;;;;;21.13;65.94;99320.22;5064824;28;45374;-59
2022/06/07 07:37:26;;;;;;;;;9.50;9.50;;;;;21.13;65.70;99309.47;5068859;28;45479;-60
2022/06/07 07:39:53;;;;;;;;;11.00;11.00;;;;;21.19;65.41;99310.81;5060555;28;45353;-59
2022/06/07 07:42:18;;;;;;;;;13.50;11.25;;;;;21.23;64.86;99317.69;5043507;28;45461;-60
2022/06/07 07:44:44;;;;;;;;;10.50;9.50;;;;;21.26;64.83;99311.22;5066277;28;45542;-60
2022/06/07 07:47:09;;;;;;;;;8.00;7.00;;;;;21.27;64.16;99312.94;5060192;28;45428;-59
2022/06/07 07:49:34;;;;;;;;;7.00;7.00;;;;;21.24;63.59;99309.53;5072054;28;45630;-60
2022/06/07 07:52:00;;;;;;;;;10.00;9.00;;;;;21.20;63.10;99304.53;5072958;28;45419;-60
2022/06/07 07:54:26;;;;;;;;;8.00;7.25;;;;;21.19;63.42;99303.66;5073718;28;45666;-60
2022/06/07 07:56:52;;;;;;;;;8.60;6.80;;;;;21.23;63.44;99299.78;5054684;28;45385;-60
2022/06/07 07:59:20;;;;;;;;;8.50;8.50;;;;;21.29;62.70;99295.72;5070131;28;45401;-59
2022/06/07 08:01:47;;;;;;;;;9.00;8.75;;;;;21.34;63.30;99293.53;5054205;28;45424;-60
2022/06/07 08:04:12;;;;;;;;;11.20;8.00;;;;;21.39;63.07;99299.38;5067362;28;45726;-60
2022/06/07 08:06:38;;;;;;;;;7.75;7.75;;;;;21.43;62.36;99294.63;5037958;28;45874;-59
2022/06/07 08:09:06;;;;;;;;;7.00;7.00;;;;;21.47;60.78;99293.34;5071282;28;45490;-60
2022/06/07 08:11:35;;;;;;;;;6.40;6.40;;;;;21.53;61.13;99290.19;5072099;28;45440;-59
2022/06/07 08:14:14;;;;;;;;;7.60;6.80;;;;;21.60;61.10;99288.72;5070212;28;45558;-61
2022/06/07 08:16:40;;;;;;;;;6.60;6.60;;;;;21.67;56.81;99294.41;5038695;28;45478;-60
2022/06/07 08:19:08;;;;;;;;;5.75;5.25;;;;;21.73;56.58;99278.66;5072539;28;45518;-59
2022/06/07 08:21:35;;;;;;;;;3.00;3.00;;;;;21.82;55.65;99277.88;5046726;28;45466;-60
2022/06/07 08:24:01;;;;;;;;;3.80;3.80;;;;;21.91;55.96;99287.00;5068533;28;46511;-58
2022/06/07 08:26:27;;;;;;;;;5.75;5.25;;;;;21.98;53.40;99295.38;5075860;28;45598;-58
2022/06/07 08:28:54;;;;;;;;;3.60;3.60;;;;;22.06;53.26;99287.56;5070600;28;45502;-58
2022/06/07 08:31:23;;;;;;;;;2.60;2.60;;;;;22.11;53.19;99280.84;5057930;28;45654;-58
2022/06/07 08:39:21;;;;;;;;;3.80;3.80;;;;;22.22;53.40;99269.16;5049653;28;45444;-59
2022/06/07 08:41:50;;;;;;;;;2.75;2.75;;;;;22.26;49.98;99273.31;5057377;28;45597;-58
2022/06/07 08:44:26;;;;;;;;;2.00;2.00;;;;;22.31;49.75;99279.09;5070286;28;45460;-59
2022/06/07 08:46:55;;;;;;;;;3.60;3.60;;;;;22.34;50.07;99267.25;5061608;28;45442;-59
2022/06/07 08:49:22;;;;;;;;;6.00;4.00;;;;;22.41;50.53;99255.00;5052383;28;45488;-60
2022/06/07 08:51:56;;;;;;;;;6.00;4.75;;;;;22.47;50.97;99265.19;5048660;28;45440;-59
2022/06/07 08:54:30;;;;;;;;;4.60;4.60;;;;;22.51;49.55;99262.13;5049920;28;46599;-59
2022/06/07 08:57:06;;;;;;;;;2.60;2.60;;;;;22.58;46.19;99254.41;5047019;28;45393;-59
2022/06/07 08:59:32;;;;;;;;;2.00;2.00;;;;;22.63;47.80;99261.03;5066003;28;45399;-59
2022/06/07 09:02:35;;;;;;;;;3.60;3.00;;;;;22.70;46.81;99255.16;5074237;28;45370;-59
2022/06/07 09:05:01;;;;;;;;;3.40;3.40;;;;;22.72;47.46;99245.13;5069491;28;46428;-59
2022/06/07 09:07:26;;;;;;;;;4.00;3.00;;;;;22.73;47.76;99244.13;5074043;28;45546;-60
2022/06/07 09:12:59;;;;;;;;;1.20;1.20;;;;;22.78;49.20;99268.81;5065804;28;45411;-59
2022/06/07 09:15:30;;;;;;;;;4.40;4.40;;;;;22.83;47.89;99239.66;5071817;28;45470;-59
2022/06/07 09:17:58;;;;;;;;;3.00;3.00;;;;;22.89;45.07;99249.88;5052737;28;45721;-59
2022/06/07 09:20:45;;;;;;;;;3.00;3.00;;;;;22.91;45.15;99254.16;5053686;28;45490;-59
2022/06/07 09:23:15;;;;;;;;;3.25;2.00;;;;;22.94;44.11;99242.25;5067723;28;45551;-59
2022/06/07 09:25:49;;;;;;;;;3.60;3.60;;;;;22.98;45.94;99243.66;5074652;28;45923;-59
2022/06/07 09:28:18;;;;;;;;;5.20;4.80;;;;;23.00;45.55;99235.47;5069685;28;45376;-59
2022/06/07 09:30:46;;;;;;;;;4.20;4.20;;;;;23.04;44.96;99244.97;5073471;28;45494;-59
2022/06/07 09:33:24;;;;;;;;;3.60;3.60;;;;;23.07;45.77;99247.41;5055761;28;45445;-59
2022/06/07 09:35:52;;;;;;;;;3.00;1.00;;;;;23.08;44.73;99227.56;5054536;28;45522;-59
2022/06/07 09:38:39;;;;;;;;;5.40;3.80;;;;;23.17;45.12;99248.25;5055419;28;45462;-59
2022/06/07 09:44:05;;;;;;;;;3.00;3.00;;;;;23.25;44.32;99245.75;5054929;28;45460;-59
2022/06/07 09:46:30;;;;;;;;;2.60;2.60;;;;;23.28;44.96;99240.09;5037339;28;46628;-60
2022/06/07 09:48:56;;;;;;;;;1.00;1.00;;;;;23.30;44.39;99233.56;5037400;28;45917;-60
2022/06/07 09:51:28;;;;;;;;;1.75;1.75;;;;;23.31;43.95;99246.00;5055171;28;45396;-57
2022/06/07 09:54:03;;;;;;;;;4.00;4.00;;;;;23.35;43.61;99219.69;5055204;28;45406;-58
2022/06/07 09:56:48;;;;;;;;;1.80;1.80;;;;;23.42;42.95;99228.06;5037296;28;47666;-58
2022/06/07 09:59:24;;;;;;;;;3.00;3.00;;;;;23.49;40.23;99232.72;5054588;28;45353;-59
2022/06/07 10:02:06;;;;;;;;;2.80;1.80;;;;;23.54;40.92;99235.03;5055075;28;45461;-58
2022/06/07 10:05:08;;;;;;;;;1.40;1.40;;;;;23.58;41.85;99247.22;5064616;28;45377;-59
2022/06/07 10:07:50;;;;;;;;;1.40;1.20;;;;;23.60;38.95;99207.56;5075188;28;45462;-58
2022/06/07 10:10:46;;;;;;;;;2.00;2.00;;;;;23.65;39.98;99213.34;5074648;28;45518;-58
2022/06/07 10:14:06;;;;;;;;;1.00;1.00;;;;;23.76;37.66;99217.75;5074673;28;45487;-59
2022/06/07 10:16:55;;;;;;;;;1.40;1.40;;;;;23.88;37.35;99197.75;5010869;28;45450;-59
2022/06/07 10:19:34;;;;;;;;;2.00;1.80;;;;;23.96;38.13;99192.53;5049300;28;45524;-58
2022/06/07 10:22:12;;;;;;;;;1.00;1.00;;;;;24.06;34.30;99205.97;5044121;28;45479;-59
2022/06/07 10:25:02;;;;;;;;;1.60;1.60;;;;;24.09;35.45;99194.91;5054929;28;45454;-59
2022/06/07 10:27:54;;;;;;;;;1.40;1.40;;;;;24.15;36.13;99208.63;5036783;28;45439;-59
2022/06/07 10:30:27;;;;;;;;;0.80;0.80;;;;;24.14;37.60;99177.28;5068884;28;45341;-59
2022/06/07 10:33:18;;;;;;;;;1.80;1.80;;;;;24.17;37.22;99195.00;5075316;28;45558;-59
2022/06/07 10:35:48;;;;;;;;;1.80;1.80;;;;;24.15;35.30;99240.09;5075135;28;45453;-59
2022/06/07 10:38:39;;;;;;;;;2.40;2.40;;;;;24.13;36.52;99196.31;5074467;28;45520;-59
2022/06/07 10:41:29;;;;;;;;;2.20;0.80;;;;;24.10;36.53;99192.06;5056059;28;45457;-59
2022/06/07 10:44:21;;;;;;;;;2.00;2.00;;;;;24.10;37.11;99191.22;5074221;28;45410;-58
2022/06/07 10:46:47;;;;;;;;;3.00;3.00;;;;;24.11;36.67;99184.84;5074005;28;45428;-58
2022/06/07 10:49:40;;;;;;;;;0.60;0.60;;;;;24.15;36.41;99189.75;5074476;28;45411;-57
2022/06/07 10:52:24;;;;;;;;;3.20;3.20;;;;;24.21;36.97;99170.34;5074490;28;47047;-58
2022/06/07 10:55:07;;;;;;;;;4.40;2.80;;;;;24.33;38.29;99181.81;5074472;28;45565;-58
2022/06/07 10:57:38;;;;;;;;;1.00;1.00;;;;;24.39;37.35;99181.22;5074491;28;45596;-59
2022/06/07 11:00:17;;;;;;;;;2.40;1.40;;;;;24.44;36.75;99178.94;5074595;28;45448;-59
2022/06/07 11:02:55;;;;;;;;;0.00;0.00;;;;;24.44;33.97;99188.88;5074301;28;45446;-59
2022/06/07 11:11:13;;;;;;;;;0.00;0.00;;;;;24.40;32.98;99180.22;5066649;28;45434;-59
2022/06/07 11:13:43;;;;;;;;;2.00;2.00;;;;;24.46;34.19;99166.19;5055484;28;47146;-59
2022/06/07 11:16:31;;;;;;;;;1.40;1.40;;;;;24.59;33.80;99180.16;5074390;28;45520;-59
2022/06/07 11:19:01;;;;;;;;;0.80;0.80;;;;;24.63;33.80;99168.06;5074014;28;45480;-58
2022/06/07 11:21:40;;;;;;;;;1.00;0.00;;;;;24.70;33.35;99166.47;5072182;28;45437;-59
2022/06/07 11:24:14;;;;;;;;;2.00;2.00;;;;;24.77;30.95;99160.47;5054265;28;46165;-60
2022/06/07 11:26:52;;;;;;;;;1.00;1.00;;;;;24.81;33.18;99133.03;5054055;28;45501;-59
2022/06/07 11:29:24;;;;;;;;;2.60;2.00;;;;;24.84;32.58;99164.25;5053991;28;45423;-60
2022/06/07 11:31:51;;;;;;;;;2.00;2.00;;;;;24.82;34.38;99148.22;5072772;28;45622;-60
2022/06/07 11:34:24;;;;;;;;;1.40;1.40;;;;;24.86;34.18;99146.09;5074058;28;45698;-60
2022/06/07 11:37:15;;;;;;;;;1.00;1.00;;;;;24.85;32.74;99179.44;5073689;28;45509;-59
2022/06/07 11:39:40;;;;;;;;;1.80;1.80;;;;;24.78;33.12;99141.47;5063263;28;45360;-59
2022/06/07 11:42:20;;;;;;;;;2.00;2.00;;;;;24.75;32.90;99140.91;5056038;28;45395;-59
2022/06/07 11:45:07;;;;;;;;;2.20;2.20;;;;;24.80;33.14;99130.53;5073665;28;46650;-59
2022/06/07 11:48:03;;;;;;;;;1.00;1.00;;;;;24.86;32.75;99129.91;5073035;28;45502;-59
2022/06/07 11:50:58;;;;;;;;;2.40;2.40;;;;;24.99;33.22;99120.47;5066081;28;45408;-59
2022/06/07 11:53:35;;;;;;;;;2.00;1.60;;;;;25.11;32.71;99128.34;5073239;28;45520;-59
2022/06/07 11:56:11;;;;;;;;;1.00;1.00;;;;;25.14;32.21;99130.72;5073128;28;46270;-59
2022/06/07 11:59:21;;;;;;;;;1.00;1.00;;;;;25.15;30.73;99118.94;5072249;28;45175;-59
2022/06/07 12:02:06;;;;;;;;;0.80;0.80;;;;;25.05;30.78;99121.72;5073460;27;45423;-59
2022/06/07 12:04:41;;;;;;;;;1.60;1.60;;;;;25.07;31.82;99121.56;5048392;28;45417;-59
2022/06/07 12:07:11;;;;;;;;;1.80;1.80;;;;;25.14;31.73;99114.53;5056700;28;45417;-59
2022/06/07 12:09:39;;;;;;;;;1.80;1.80;;;;;25.18;31.38;99108.69;5039299;28;45446;-59
2022/06/07 12:12:24;;;;;;;;;1.80;1.80;;;;;25.26;31.04;99106.06;5057063;28;45389;-59